Time;durP1;ratioP1;P1;durP2;ratioP2;P2;SDS_P1;SDS_P2;PMS_P1;PMS_P2;Temp;Humidity;BMP_temperature;BMP_pressure;BME280_temperature;BME280_humidity;BME280_pressure;Samples;Min_cycle;Max_cycle;Signal;HPM_P1;HPM_P2
2022/01/16 00:01:34;;;;;;;19.10;10.90;;;;;;;;;;4907445;29;20322;-88
2022/01/16 00:04:07;;;;;;;15.70;10.27;;;;;;;;;;4915335;29;20629;-88
2022/01/16 00:06:34;;;;;;;19.73;10.87;;;;;;;;;;4917148;29;20213;-88
2022/01/16 00:09:02;;;;;;;19.30;10.63;;;;;;;;;;4916235;29;20285;-88
2022/01/16 00:11:29;;;;;;;15.77;9.03;;;;;;;;;;4915915;29;20206;-89
2022/01/16 00:13:56;;;;;;;19.17;10.53;;;;;;;;;;4916147;29;20294;-88
2022/01/16 00:16:25;;;;;;;15.87;10.23;;;;;;;;;;4916265;29;20270;-89
2022/01/16 00:18:58;;;;;;;19.57;11.77;;;;;;;;;;4915994;29;20703;-89
2022/01/16 00:21:26;;;;;;;20.37;11.77;;;;;;;;;;4919183;29;20302;-89
2022/01/16 00:23:54;;;;;;;20.57;11.33;;;;;;;;;;4918112;29;20241;-89
2022/01/16 00:26:23;;;;;;;27.27;13.13;;;;;;;;;;4914700;29;20262;-89
2022/01/16 00:28:51;;;;;;;27.97;13.50;;;;;;;;;;4914525;29;20233;-89
2022/01/16 00:31:18;;;;;;;24.60;13.07;;;;;;;;;;4914526;29;20707;-91
2022/01/16 00:33:47;;;;;;;25.53;13.70;;;;;;;;;;4911743;29;20202;-88
2022/01/16 00:36:17;;;;;;;23.13;12.20;;;;;;;;;;4913509;29;20728;-88
2022/01/16 00:38:45;;;;;;;24.43;12.10;;;;;;;;;;4913750;29;20227;-92
2022/01/16 00:41:12;;;;;;;20.67;9.70;;;;;;;;;;4915039;29;20708;-88
2022/01/16 00:43:40;;;;;;;18.27;11.27;;;;;;;;;;4914341;29;20218;-92
2022/01/16 00:46:07;;;;;;;23.63;11.43;;;;;;;;;;4914371;29;20217;-92
2022/01/16 00:48:35;;;;;;;24.23;12.00;;;;;;;;;;4914076;29;20222;-90
2022/01/16 00:51:04;;;;;;;25.23;12.10;;;;;;;;;;4914766;29;20270;-89
2022/01/16 00:53:31;;;;;;;27.43;13.53;;;;;;;;;;4914001;29;20219;-89
2022/01/16 00:55:58;;;;;;;32.33;12.80;;;;;;;;;;4914000;29;20206;-88
2022/01/16 00:58:26;;;;;;;30.63;12.93;;;;;;;;;;4913447;29;20740;-88
2022/01/16 01:00:53;;;;;;;26.37;13.43;;;;;;;;;;4914967;29;20199;-92
2022/01/16 01:03:25;;;;;;;21.13;10.93;;;;;;;;;;4913892;29;20716;-89
2022/01/16 01:05:52;;;;;;;19.67;11.77;;;;;;;;;;4914105;29;20213;-89
2022/01/16 01:08:22;;;;;;;22.60;11.50;;;;;;;;;;4914236;29;20250;-88
2022/01/16 01:10:52;;;;;;;22.83;11.77;;;;;;;;;;4914302;29;20607;-90
2022/01/16 01:13:23;;;;;;;26.17;13.23;;;;;;;;;;4913588;29;20205;-88
2022/01/16 01:15:58;;;;;;;21.20;12.33;;;;;;;;;;4913751;29;20211;-88
2022/01/16 01:18:26;;;;;;;17.93;10.73;;;;;;;;;;4914424;29;20234;-88
2022/01/16 01:20:53;;;;;;;21.97;11.37;;;;;;;;;;4913111;29;20199;-88
2022/01/16 01:23:22;;;;;;;23.33;12.77;;;;;;;;;;4918264;29;20298;-88
2022/01/16 01:25:50;;;;;;;21.43;11.00;;;;;;;;;;4917928;29;20615;-88
2022/01/16 01:28:17;;;;;;;18.90;10.00;;;;;;;;;;4918460;29;20601;-89
2022/01/16 01:30:45;;;;;;;16.07;9.77;;;;;;;;;;4917608;29;20274;-88
2022/01/16 01:33:14;;;;;;;16.20;9.50;;;;;;;;;;4918224;29;20211;-88
2022/01/16 01:35:41;;;;;;;19.90;11.27;;;;;;;;;;4918442;29;20221;-91
2022/01/16 01:38:09;;;;;;;17.67;10.83;;;;;;;;;;4917708;29;20234;-87
2022/01/16 01:40:40;;;;;;;15.70;10.37;;;;;;;;;;4918254;29;20199;-88
2022/01/16 01:51:21;;;;;;;21.30;10.63;;;;;;;;;;4917616;29;20194;-88
2022/01/16 01:53:50;;;;;;;17.30;9.37;;;;;;;;;;4917376;29;20652;-89
2022/01/16 01:56:21;;;;;;;21.87;10.53;;;;;;;;;;4903001;29;20303;-88
2022/01/16 01:58:48;;;;;;;20.67;10.73;;;;;;;;;;4917701;29;20676;-88
2022/01/16 02:01:21;;;;;;;16.93;9.90;;;;;;;;;;4916871;29;20211;-87
2022/01/16 02:03:49;;;;;;;17.87;10.40;;;;;;;;;;4917390;29;20664;-88
2022/01/16 02:06:17;;;;;;;15.70;9.53;;;;;;;;;;4910131;29;20207;-88
2022/01/16 02:08:46;;;;;;;16.30;10.07;;;;;;;;;;4917871;29;20497;-88
2022/01/16 02:11:13;;;;;;;19.93;10.90;;;;;;;;;;4917247;29;20207;-88
2022/01/16 02:13:51;;;;;;;17.80;11.27;;;;;;;;;;4917911;29;20203;-87
2022/01/16 02:35:46;;;;;;;19.80;10.90;;;;;;;;;;5069360;28;20581;-89
2022/01/16 02:38:14;;;;;;;18.30;9.63;;;;;;;;;;5069222;28;20232;-89
2022/01/16 02:40:44;;;;;;;17.80;9.93;;;;;;;;;;5062082;28;20651;-89
2022/01/16 02:43:12;;;;;;;18.13;10.30;;;;;;;;;;5060965;28;20568;-88
2022/01/16 02:45:45;;;;;;;22.40;9.90;;;;;;;;;;5062666;28;20252;-88
2022/01/16 02:48:12;;;;;;;16.63;8.93;;;;;;;;;;5049834;28;20234;-88
2022/01/16 02:50:40;;;;;;;17.40;10.80;;;;;;;;;;5042237;28;20271;-88
2022/01/16 02:53:11;;;;;;;13.07;8.73;;;;;;;;;;5059282;28;20673;-88
2022/01/16 02:55:41;;;;;;;15.97;8.67;;;;;;;;;;5069355;28;20228;-88
2022/01/16 02:58:08;;;;;;;16.87;9.60;;;;;;;;;;5058988;28;20288;-89
2022/01/16 03:00:36;;;;;;;20.50;10.23;;;;;;;;;;5064199;28;20209;-89
2022/01/16 03:03:03;;;;;;;16.60;10.10;;;;;;;;;;5060759;28;20290;-88
2022/01/16 03:05:31;;;;;;;17.40;10.47;;;;;;;;;;5048702;28;20206;-90
2022/01/16 03:07:58;;;;;;;14.57;9.33;;;;;;;;;;5065573;28;20249;-88
2022/01/16 03:11:03;;;;;;;16.07;9.37;;;;;;;;;;5049405;28;20670;-89
2022/01/16 03:13:32;;;;;;;15.80;9.20;;;;;;;;;;5057532;28;20569;-88
2022/01/16 03:15:59;;;;;;;16.03;8.90;;;;;;;;;;5066847;28;20714;-88
2022/01/16 03:23:56;;;;;;;14.73;8.97;;;;;;;;;;5060444;28;20197;-88
2022/01/16 03:26:25;;;;;;;18.37;9.87;;;;;;;;;;5068946;28;20229;-89
2022/01/16 03:28:52;;;;;;;14.63;9.20;;;;;;;;;;5068908;28;20233;-89
2022/01/16 03:31:19;;;;;;;19.33;10.37;;;;;;;;;;5064210;28;20198;-89
2022/01/16 03:33:47;;;;;;;16.93;10.40;;;;;;;;;;5056654;28;20279;-88
2022/01/16 03:36:14;;;;;;;17.90;9.40;;;;;;;;;;5069049;28;20213;-89
2022/01/16 03:38:41;;;;;;;16.80;9.43;;;;;;;;;;5068379;28;20295;-88
2022/01/16 03:41:09;;;;;;;18.37;10.63;;;;;;;;;;5057558;28;20210;-88
2022/01/16 03:43:38;;;;;;;19.77;10.93;;;;;;;;;;5056877;28;20238;-89
2022/01/16 03:46:05;;;;;;;18.57;10.27;;;;;;;;;;5040778;28;20623;-88
2022/01/16 03:48:33;;;;;;;16.50;9.97;;;;;;;;;;5043268;28;20227;-88
2022/01/16 03:51:00;;;;;;;21.27;11.03;;;;;;;;;;5044925;28;20206;-89
2022/01/16 03:53:27;;;;;;;18.80;9.70;;;;;;;;;;5054646;28;20562;-88
2022/01/16 03:55:54;;;;;;;16.97;9.90;;;;;;;;;;5046519;28;20226;-88
2022/01/16 03:58:22;;;;;;;20.07;10.57;;;;;;;;;;5046653;28;20290;-88
2022/01/16 04:00:51;;;;;;;18.63;11.10;;;;;;;;;;5038505;28;20199;-88
2022/01/16 04:03:18;;;;;;;19.57;10.77;;;;;;;;;;5035005;28;20210;-89
2022/01/16 04:05:45;;;;;;;20.50;10.77;;;;;;;;;;5034789;28;20206;-88
2022/01/16 04:08:13;;;;;;;18.83;9.63;;;;;;;;;;5051123;28;20245;-91
2022/01/16 04:10:40;;;;;;;15.20;9.07;;;;;;;;;;5050370;28;20248;-89
2022/01/16 04:13:08;;;;;;;15.23;9.17;;;;;;;;;;5054634;28;20213;-89
2022/01/16 04:15:35;;;;;;;15.33;9.40;;;;;;;;;;5040024;28;20314;-89
2022/01/16 04:18:05;;;;;;;20.13;10.20;;;;;;;;;;5034824;28;20238;-89
2022/01/16 04:20:33;;;;;;;16.77;10.13;;;;;;;;;;5034803;28;20210;-90
2022/01/16 04:23:01;;;;;;;17.37;9.60;;;;;;;;;;5034988;28;20218;-89
2022/01/16 04:25:28;;;;;;;18.30;11.10;;;;;;;;;;5042898;28;20222;-88
2022/01/16 04:27:56;;;;;;;18.47;10.73;;;;;;;;;;5042587;28;20223;-89
2022/01/16 04:30:23;;;;;;;17.03;10.63;;;;;;;;;;5034622;28;20280;-88
2022/01/16 04:32:51;;;;;;;20.17;10.80;;;;;;;;;;5034640;28;20567;-90
2022/01/16 04:35:20;;;;;;;15.90;8.80;;;;;;;;;;5050059;28;20247;-89
2022/01/16 04:37:47;;;;;;;17.80;9.93;;;;;;;;;;5042531;28;20276;-88
2022/01/16 04:40:15;;;;;;;17.87;9.87;;;;;;;;;;5054719;28;20291;-89
2022/01/16 04:45:27;;;;;;;13.50;8.37;;;;;;;;;;5041085;28;20192;-89
2022/01/16 04:47:55;;;;;;;15.40;8.87;;;;;;;;;;5044852;28;20707;-89
2022/01/16 04:50:25;;;;;;;14.67;7.97;;;;;;;;;;5038709;28;20202;-89
2022/01/16 04:52:53;;;;;;;13.33;7.53;;;;;;;;;;5037561;28;20210;-89
2022/01/16 04:55:24;;;;;;;20.97;8.87;;;;;;;;;;5049346;28;20215;-89
2022/01/16 04:57:52;;;;;;;12.97;7.53;;;;;;;;;;5032725;28;20237;-88
2022/01/16 05:00:19;;;;;;;12.23;7.80;;;;;;;;;;5033615;28;20250;-89
2022/01/16 05:02:47;;;;;;;17.17;9.60;;;;;;;;;;5041776;28;20211;-89
2022/01/16 05:05:14;;;;;;;15.33;9.13;;;;;;;;;;5053846;28;20280;-88
2022/01/16 05:07:43;;;;;;;11.43;7.97;;;;;;;;;;5047214;28;20222;-89
2022/01/16 05:10:12;;;;;;;13.83;8.80;;;;;;;;;;5037425;28;20263;-89
2022/01/16 05:12:43;;;;;;;14.63;8.67;;;;;;;;;;5038485;28;20570;-89
2022/01/16 05:17:55;;;;;;;15.83;8.50;;;;;;;;;;5044877;28;20226;-88
2022/01/16 05:20:23;;;;;;;13.93;8.63;;;;;;;;;;5048305;28;20659;-90
2022/01/16 05:22:52;;;;;;;16.60;8.73;;;;;;;;;;5049853;28;20259;-88
2022/01/16 05:25:19;;;;;;;16.27;8.97;;;;;;;;;;5043222;28;20237;-89
2022/01/16 05:27:47;;;;;;;17.13;9.30;;;;;;;;;;5033451;28;20227;-88
2022/01/16 05:30:14;;;;;;;16.67;9.37;;;;;;;;;;5036362;28;20643;-89
2022/01/16 05:32:41;;;;;;;16.53;8.43;;;;;;;;;;5053242;28;20202;-90
2022/01/16 05:35:09;;;;;;;13.47;8.40;;;;;;;;;;5044498;28;20246;-89
2022/01/16 05:37:37;;;;;;;17.83;10.03;;;;;;;;;;5049238;28;20687;-89
2022/01/16 05:40:07;;;;;;;15.80;9.17;;;;;;;;;;5051231;28;20640;-89
2022/01/16 05:42:34;;;;;;;15.00;9.37;;;;;;;;;;5044895;28;20552;-89
2022/01/16 05:45:01;;;;;;;18.37;10.43;;;;;;;;;;5053232;28;20198;-88
2022/01/16 05:47:28;;;;;;;20.07;9.70;;;;;;;;;;5048488;28;20226;-89
2022/01/16 05:49:56;;;;;;;17.10;9.37;;;;;;;;;;5043796;28;20559;-90
2022/01/16 05:52:23;;;;;;;17.80;9.77;;;;;;;;;;5033244;28;20213;-89
2022/01/16 05:54:50;;;;;;;18.13;9.27;;;;;;;;;;5033019;28;20249;-89
2022/01/16 05:57:19;;;;;;;18.00;9.67;;;;;;;;;;5032623;28;20218;-88
2022/01/16 05:59:46;;;;;;;17.40;9.33;;;;;;;;;;5032948;28;20289;-89
2022/01/16 06:02:15;;;;;;;16.73;9.30;;;;;;;;;;5032868;28;20202;-88
2022/01/16 06:04:42;;;;;;;15.40;8.90;;;;;;;;;;5029637;28;20206;-89
2022/01/16 06:07:09;;;;;;;15.90;8.27;;;;;;;;;;5035593;28;20244;-89
2022/01/16 06:09:37;;;;;;;17.97;9.70;;;;;;;;;;5037812;28;20215;-90
2022/01/16 06:12:04;;;;;;;14.17;8.23;;;;;;;;;;5034777;28;20215;-89
2022/01/16 06:14:33;;;;;;;13.03;7.37;;;;;;;;;;5052674;28;20202;-89
2022/01/16 06:17:01;;;;;;;15.07;8.03;;;;;;;;;;5044192;28;20205;-89
2022/01/16 06:19:28;;;;;;;11.30;6.73;;;;;;;;;;5052560;28;20201;-89
2022/01/16 06:21:55;;;;;;;15.37;9.17;;;;;;;;;;5050229;28;20226;-89
2022/01/16 06:24:22;;;;;;;15.50;9.47;;;;;;;;;;5032468;28;20207;-88
2022/01/16 06:26:50;;;;;;;14.27;8.10;;;;;;;;;;5049111;28;20621;-89
2022/01/16 06:29:18;;;;;;;12.60;7.43;;;;;;;;;;5054891;28;20206;-88
2022/01/16 06:31:47;;;;;;;14.93;7.77;;;;;;;;;;5057732;28;20738;-89
2022/01/16 06:34:14;;;;;;;14.50;8.20;;;;;;;;;;5048379;28;20214;-89
2022/01/16 06:36:42;;;;;;;12.20;7.53;;;;;;;;;;5032532;28;20274;-90
2022/01/16 06:39:10;;;;;;;13.13;7.70;;;;;;;;;;5032833;28;20284;-89
2022/01/16 06:41:38;;;;;;;13.53;8.13;;;;;;;;;;5049211;28;20240;-89
2022/01/16 06:44:05;;;;;;;12.97;7.73;;;;;;;;;;5043371;28;20707;-89
2022/01/16 06:46:33;;;;;;;11.53;6.90;;;;;;;;;;5050290;28;20263;-90
2022/01/16 06:49:02;;;;;;;15.23;8.80;;;;;;;;;;5052822;28;20229;-88
2022/01/16 06:51:30;;;;;;;15.97;8.40;;;;;;;;;;5040105;28;20210;-88
2022/01/16 06:53:57;;;;;;;11.07;7.73;;;;;;;;;;5038595;28;20237;-89
2022/01/16 06:56:25;;;;;;;14.13;7.50;;;;;;;;;;5034415;28;20269;-89
2022/01/16 06:58:52;;;;;;;14.53;7.90;;;;;;;;;;5041022;28;20248;-88
2022/01/16 07:01:20;;;;;;;11.80;7.67;;;;;;;;;;5044107;28;20206;-89
2022/01/16 07:03:48;;;;;;;12.97;7.93;;;;;;;;;;5036032;28;20206;-90
2022/01/16 07:06:17;;;;;;;12.03;7.80;;;;;;;;;;5030869;28;20205;-88
2022/01/16 07:08:44;;;;;;;13.60;7.90;;;;;;;;;;5052046;28;20233;-89
2022/01/16 07:11:12;;;;;;;11.97;7.27;;;;;;;;;;5032178;28;20203;-89
2022/01/16 07:13:40;;;;;;;14.30;7.87;;;;;;;;;;5032395;28;20218;-89
2022/01/16 07:16:07;;;;;;;14.07;8.23;;;;;;;;;;5031847;28;20231;-89
2022/01/16 07:18:34;;;;;;;11.87;7.63;;;;;;;;;;5038387;28;20222;-89
2022/01/16 07:21:01;;;;;;;12.40;7.47;;;;;;;;;;5035058;28;20248;-89
2022/01/16 07:23:30;;;;;;;14.83;7.83;;;;;;;;;;5035766;28;20277;-90
2022/01/16 07:25:57;;;;;;;13.87;8.07;;;;;;;;;;5035676;28;20268;-88
2022/01/16 07:28:25;;;;;;;12.77;7.10;;;;;;;;;;5035514;28;20517;-88
2022/01/16 07:30:52;;;;;;;14.73;8.20;;;;;;;;;;5036049;28;20217;-88
2022/01/16 07:33:19;;;;;;;14.03;8.20;;;;;;;;;;5035494;28;20291;-89
2022/01/16 07:35:47;;;;;;;14.43;8.20;;;;;;;;;;5051952;28;20555;-89
2022/01/16 07:38:14;;;;;;;11.37;7.23;;;;;;;;;;5041036;28;20251;-89
2022/01/16 07:40:43;;;;;;;11.83;7.17;;;;;;;;;;5015734;28;20215;-89
2022/01/16 07:43:10;;;;;;;15.70;8.80;;;;;;;;;;5051813;28;20261;-89
2022/01/16 07:45:38;;;;;;;14.40;8.60;;;;;;;;;;5035967;28;20207;-89
2022/01/16 07:48:06;;;;;;;16.20;8.43;;;;;;;;;;5036663;28;20368;-90
2022/01/16 07:50:34;;;;;;;13.47;8.57;;;;;;;;;;5047806;28;20233;-89
2022/01/16 07:53:01;;;;;;;14.17;7.93;;;;;;;;;;5050806;28;20675;-90
2022/01/16 07:55:28;;;;;;;13.77;8.37;;;;;;;;;;5028155;28;20292;-90
2022/01/16 07:57:58;;;;;;;14.57;8.60;;;;;;;;;;5028463;28;20235;-89
2022/01/16 08:00:25;;;;;;;12.90;8.03;;;;;;;;;;5041439;28;20635;-90
2022/01/16 08:02:53;;;;;;;14.13;8.70;;;;;;;;;;5056852;28;20539;-89
2022/01/16 08:05:21;;;;;;;13.53;8.13;;;;;;;;;;5048585;28;20198;-90
2022/01/16 08:07:48;;;;;;;16.00;9.33;;;;;;;;;;5040149;28;20300;-89
2022/01/16 08:10:16;;;;;;;14.70;9.40;;;;;;;;;;5047534;28;20210;-90
2022/01/16 08:12:43;;;;;;;14.40;8.77;;;;;;;;;;5054088;28;20209;-91
2022/01/16 08:15:12;;;;;;;17.47;9.70;;;;;;;;;;5036814;28;20939;-91
2022/01/16 08:17:39;;;;;;;15.07;8.93;;;;;;;;;;5038688;28;20236;-90
2022/01/16 08:20:09;;;;;;;16.03;8.63;;;;;;;;;;5056400;28;20659;-91
2022/01/16 08:22:36;;;;;;;15.67;9.30;;;;;;;;;;5036395;28;20307;-90
2022/01/16 08:25:04;;;;;;;16.83;9.90;;;;;;;;;;5045048;28;20260;-91
2022/01/16 08:27:31;;;;;;;17.23;8.80;;;;;;;;;;5025659;28;20254;-90
2022/01/16 08:29:59;;;;;;;14.17;9.03;;;;;;;;;;5024868;28;20203;-91
2022/01/16 08:32:28;;;;;;;15.20;9.40;;;;;;;;;;5041011;28;20202;-91
2022/01/16 08:34:55;;;;;;;16.63;9.07;;;;;;;;;;5036729;28;20284;-91
2022/01/16 08:37:22;;;;;;;14.93;9.63;;;;;;;;;;5034942;28;20234;-91
2022/01/16 08:39:50;;;;;;;14.37;9.27;;;;;;;;;;5031499;28;20215;-91
2022/01/16 08:42:17;;;;;;;17.07;9.37;;;;;;;;;;5048054;28;20202;-89
2022/01/16 08:44:44;;;;;;;13.93;8.57;;;;;;;;;;5041433;28;20206;-90
2022/01/16 08:47:12;;;;;;;16.97;9.47;;;;;;;;;;5034929;28;20227;-91
2022/01/16 08:49:40;;;;;;;18.97;10.00;;;;;;;;;;5040799;28;20239;-90
2022/01/16 08:52:08;;;;;;;15.57;10.03;;;;;;;;;;5023776;28;20285;-90
2022/01/16 08:54:35;;;;;;;17.07;10.20;;;;;;;;;;5029379;28;20611;-90
2022/01/16 08:57:05;;;;;;;16.23;10.53;;;;;;;;;;5040338;28;20272;-90
2022/01/16 08:59:32;;;;;;;16.73;10.23;;;;;;;;;;5055201;28;20260;-92
2022/01/16 09:02:00;;;;;;;13.77;9.73;;;;;;;;;;5044705;28;20206;-90
2022/01/16 09:04:27;;;;;;;14.70;10.20;;;;;;;;;;5033106;28;20633;-89
2022/01/16 09:06:56;;;;;;;15.00;10.10;;;;;;;;;;5042219;28;20199;-89
2022/01/16 09:09:23;;;;;;;12.63;9.37;;;;;;;;;;5029048;28;20252;-90
2022/01/16 09:11:50;;;;;;;16.93;10.80;;;;;;;;;;5025754;28;20202;-90
2022/01/16 09:14:18;;;;;;;17.17;10.60;;;;;;;;;;5034852;28;20287;-90
2022/01/16 09:16:45;;;;;;;15.27;10.20;;;;;;;;;;5033839;28;20493;-89
2022/01/16 09:19:12;;;;;;;14.60;10.23;;;;;;;;;;5016763;28;20281;-89
2022/01/16 09:21:39;;;;;;;14.67;9.50;;;;;;;;;;5023437;28;20215;-90
2022/01/16 09:24:09;;;;;;;18.40;10.23;;;;;;;;;;5041085;28;20263;-91
2022/01/16 09:26:36;;;;;;;16.40;10.20;;;;;;;;;;5029351;28;20667;-89
2022/01/16 09:29:04;;;;;;;17.70;10.53;;;;;;;;;;5017520;28;20226;-90
2022/01/16 09:31:31;;;;;;;16.57;10.40;;;;;;;;;;5043358;28;20218;-92
2022/01/16 09:33:59;;;;;;;17.37;10.90;;;;;;;;;;5053094;28;20287;-90
2022/01/16 09:36:27;;;;;;;15.53;9.77;;;;;;;;;;5048672;28;20729;-90
2022/01/16 09:38:54;;;;;;;19.63;11.17;;;;;;;;;;5030824;28;20590;-89
2022/01/16 09:41:23;;;;;;;18.77;10.40;;;;;;;;;;5041294;28;20227;-89
2022/01/16 09:43:51;;;;;;;16.63;10.43;;;;;;;;;;5032741;28;20621;-89
2022/01/16 09:46:18;;;;;;;15.73;10.50;;;;;;;;;;5025293;28;20257;-90
2022/01/16 09:48:46;;;;;;;15.13;10.37;;;;;;;;;;5024087;28;20223;-90
2022/01/16 09:51:13;;;;;;;16.50;10.83;;;;;;;;;;5052305;28;20220;-90
2022/01/16 09:53:42;;;;;;;15.73;10.40;;;;;;;;;;5053229;28;20210;-90
2022/01/16 09:56:10;;;;;;;16.97;10.40;;;;;;;;;;5030926;28;20305;-91
2022/01/16 09:58:39;;;;;;;16.03;10.50;;;;;;;;;;5027376;28;20230;-90
2022/01/16 10:01:06;;;;;;;21.37;11.60;;;;;;;;;;5051298;28;20687;-90
2022/01/16 10:03:35;;;;;;;39.17;20.77;;;;;;;;;;5024257;28;20207;-90
2022/01/16 10:06:10;;;;;;;20.07;12.00;;;;;;;;;;5037592;28;20226;-89
2022/01/16 10:08:38;;;;;;;21.13;12.23;;;;;;;;;;5047243;28;20607;-89
2022/01/16 10:11:20;;;;;;;18.63;11.43;;;;;;;;;;5046014;28;20238;-90
2022/01/16 10:13:57;;;;;;;16.43;10.80;;;;;;;;;;5039077;28;20197;-90
2022/01/16 10:16:26;;;;;;;16.30;11.17;;;;;;;;;;5039049;28;20222;-90
2022/01/16 10:18:53;;;;;;;21.00;11.93;;;;;;;;;;5052749;28;20582;-89
2022/01/16 10:21:32;;;;;;;20.70;12.73;;;;;;;;;;5037687;28;20198;-90
2022/01/16 10:23:59;;;;;;;19.37;11.70;;;;;;;;;;5033738;28;20213;-90
2022/01/16 10:26:29;;;;;;;19.80;12.33;;;;;;;;;;5045799;28;20629;-89
2022/01/16 10:28:57;;;;;;;18.77;12.20;;;;;;;;;;5041487;28;20227;-90
2022/01/16 10:31:26;;;;;;;18.80;11.43;;;;;;;;;;5029634;28;20258;-89
2022/01/16 10:33:55;;;;;;;19.20;11.63;;;;;;;;;;5032334;28;20217;-90
2022/01/16 10:36:32;;;;;;;20.43;13.20;;;;;;;;;;5011842;28;20285;-90
2022/01/16 10:39:05;;;;;;;18.73;11.77;;;;;;;;;;5038846;28;20237;-89
2022/01/16 10:41:33;;;;;;;18.07;11.27;;;;;;;;;;5047821;28;20194;-89
2022/01/16 10:44:01;;;;;;;18.03;12.03;;;;;;;;;;5056689;28;20202;-89
2022/01/16 10:46:29;;;;;;;19.07;12.60;;;;;;;;;;5043539;28;20206;-89
2022/01/16 10:49:15;;;;;;;19.57;11.87;;;;;;;;;;5041831;28;20233;-89
2022/01/16 10:51:43;;;;;;;16.70;10.87;;;;;;;;;;5028254;28;20198;-89
2022/01/16 10:54:25;;;;;;;18.27;12.23;;;;;;;;;;5028745;28;20264;-89
2022/01/16 10:56:52;;;;;;;18.47;11.73;;;;;;;;;;5035838;28;20271;-89
2022/01/16 10:59:24;;;;;;;21.87;11.40;;;;;;;;;;5048990;28;20225;-89
2022/01/16 11:02:15;;;;;;;19.73;11.60;;;;;;;;;;5034118;28;20259;-89
2022/01/16 11:04:42;;;;;;;19.03;11.43;;;;;;;;;;5013134;28;20258;-90
2022/01/16 11:07:10;;;;;;;19.17;11.03;;;;;;;;;;5033772;28;20261;-89
2022/01/16 11:09:38;;;;;;;19.43;11.73;;;;;;;;;;5018183;28;20407;-90
2022/01/16 11:12:06;;;;;;;18.20;11.03;;;;;;;;;;5026903;28;20265;-89
2022/01/16 11:14:34;;;;;;;20.77;11.23;;;;;;;;;;5036133;28;20275;-90
2022/01/16 11:17:02;;;;;;;16.17;11.60;;;;;;;;;;5035346;28;20229;-89
2022/01/16 11:19:35;;;;;;;18.83;12.10;;;;;;;;;;5029485;28;20207;-90
2022/01/16 11:22:05;;;;;;;20.67;12.07;;;;;;;;;;5027422;28;20218;-89
2022/01/16 11:24:47;;;;;;;17.13;11.83;;;;;;;;;;5045451;28;20206;-89
2022/01/16 11:27:16;;;;;;;18.60;12.07;;;;;;;;;;5016258;28;20254;-89
2022/01/16 11:29:45;;;;;;;20.20;13.20;;;;;;;;;;5021964;28;20215;-90
2022/01/16 11:32:13;;;;;;;21.63;13.20;;;;;;;;;;5032137;28;20253;-89
2022/01/16 11:34:42;;;;;;;22.57;13.00;;;;;;;;;;5055621;28;20211;-89
2022/01/16 11:37:09;;;;;;;18.57;12.67;;;;;;;;;;5061808;28;20682;-89
2022/01/16 11:39:39;;;;;;;21.17;12.73;;;;;;;;;;5036758;28;20260;-90
2022/01/16 11:42:15;;;;;;;22.23;14.13;;;;;;;;;;5040408;28;20217;-89
2022/01/16 11:44:53;;;;;;;22.63;13.67;;;;;;;;;;5022061;28;20206;-90
2022/01/16 11:47:20;;;;;;;23.40;14.37;;;;;;;;;;5019639;28;20219;-89
2022/01/16 11:49:48;;;;;;;22.63;14.33;;;;;;;;;;5047218;28;20268;-89
2022/01/16 11:52:17;;;;;;;24.37;14.50;;;;;;;;;;5047399;28;20212;-89
2022/01/16 11:54:55;;;;;;;22.40;13.57;;;;;;;;;;5062116;28;20241;-89
2022/01/16 11:57:24;;;;;;;24.77;13.80;;;;;;;;;;5035426;28;20226;-90
2022/01/16 11:59:54;;;;;;;24.13;13.73;;;;;;;;;;5039716;28;20261;-89
2022/01/16 12:02:28;;;;;;;29.70;18.30;;;;;;;;;;5028104;28;20789;-89
2022/01/16 12:05:00;;;;;;;23.43;13.83;;;;;;;;;;5021230;28;20211;-89
2022/01/16 12:07:50;;;;;;;20.77;13.30;;;;;;;;;;5036180;28;20241;-89
2022/01/16 12:10:36;;;;;;;23.43;13.53;;;;;;;;;;5026767;28;20567;-89
2022/01/16 12:13:03;;;;;;;22.10;13.53;;;;;;;;;;5025805;28;20714;-89
2022/01/16 12:15:32;;;;;;;22.97;13.17;;;;;;;;;;5035965;28;20203;-89
2022/01/16 12:18:00;;;;;;;22.50;13.43;;;;;;;;;;5041678;28;20284;-89
2022/01/16 12:20:30;;;;;;;22.87;13.83;;;;;;;;;;5054864;28;20732;-89
2022/01/16 12:22:58;;;;;;;19.77;12.30;;;;;;;;;;5031455;28;20198;-90
2022/01/16 12:25:27;;;;;;;24.37;15.00;;;;;;;;;;5041505;28;20245;-89
2022/01/16 12:27:55;;;;;;;23.30;14.53;;;;;;;;;;5034548;28;20227;-90
2022/01/16 12:30:24;;;;;;;27.20;16.17;;;;;;;;;;5030544;28;20218;-90
2022/01/16 12:32:54;;;;;;;24.70;15.00;;;;;;;;;;5018473;28;20214;-90
2022/01/16 12:35:39;;;;;;;25.97;14.97;;;;;;;;;;5038758;28;20651;-90
2022/01/16 12:38:07;;;;;;;27.23;15.50;;;;;;;;;;5048196;28;20235;-89
2022/01/16 12:40:34;;;;;;;28.30;13.77;;;;;;;;;;5037088;28;20298;-89
2022/01/16 12:43:02;;;;;;;24.23;14.10;;;;;;;;;;5035743;28;20210;-90
2022/01/16 12:45:29;;;;;;;24.33;13.60;;;;;;;;;;5036261;28;20214;-89
2022/01/16 12:47:59;;;;;;;26.63;14.93;;;;;;;;;;5032072;28;20275;-89
2022/01/16 12:50:26;;;;;;;30.70;15.57;;;;;;;;;;5053729;28;20562;-89
2022/01/16 12:52:54;;;;;;;24.90;15.00;;;;;;;;;;5054389;28;20210;-90
2022/01/16 12:55:26;;;;;;;31.60;15.13;;;;;;;;;;5039286;28;20211;-89
2022/01/16 12:57:54;;;;;;;24.83;12.03;;;;;;;;;;5035005;28;20234;-89
2022/01/16 13:00:21;;;;;;;23.93;13.63;;;;;;;;;;5033402;28;20202;-88
2022/01/16 13:02:53;;;;;;;23.50;12.50;;;;;;;;;;5039661;28;20265;-92
2022/01/16 13:05:22;;;;;;;22.20;12.67;;;;;;;;;;5054095;28;20212;-89
2022/01/16 13:07:49;;;;;;;25.30;13.87;;;;;;;;;;5036772;28;20227;-89
2022/01/16 13:10:17;;;;;;;26.23;14.03;;;;;;;;;;5040828;28;20623;-89
2022/01/16 13:12:44;;;;;;;26.80;14.43;;;;;;;;;;5039710;28;20815;-89
2022/01/16 13:15:12;;;;;;;27.73;14.57;;;;;;;;;;5033581;28;20268;-88
2022/01/16 13:17:39;;;;;;;23.57;13.90;;;;;;;;;;5034036;28;20238;-89
2022/01/16 13:20:14;;;;;;;24.53;13.77;;;;;;;;;;5046045;28;20199;-89
2022/01/16 13:22:43;;;;;;;24.67;15.00;;;;;;;;;;5053585;28;20293;-89
2022/01/16 13:25:11;;;;;;;24.73;14.23;;;;;;;;;;5045525;28;20206;-89
2022/01/16 13:27:39;;;;;;;27.80;15.00;;;;;;;;;;5034529;28;20219;-88
2022/01/16 13:30:10;;;;;;;24.83;14.77;;;;;;;;;;5040275;28;20232;-89
2022/01/16 13:32:38;;;;;;;27.13;15.80;;;;;;;;;;5033292;28;20202;-90
2022/01/16 13:35:07;;;;;;;29.67;15.30;;;;;;;;;;5025920;28;20241;-89
2022/01/16 13:37:36;;;;;;;26.07;14.73;;;;;;;;;;5032964;28;20255;-89
2022/01/16 13:40:06;;;;;;;29.83;15.53;;;;;;;;;;5030728;28;20202;-89
2022/01/16 13:42:48;;;;;;;28.47;15.30;;;;;;;;;;5032501;28;20879;-89
2022/01/16 13:45:16;;;;;;;29.73;14.80;;;;;;;;;;5029078;28;20228;-89
2022/01/16 13:47:51;;;;;;;24.90;13.67;;;;;;;;;;5040923;28;20222;-89
2022/01/16 13:50:18;;;;;;;27.63;15.70;;;;;;;;;;5013383;28;20250;-89
2022/01/16 13:52:52;;;;;;;29.53;15.73;;;;;;;;;;5012492;28;20203;-89
2022/01/16 13:55:21;;;;;;;27.70;15.30;;;;;;;;;;5039568;28;20723;-89
2022/01/16 13:57:48;;;;;;;27.43;15.13;;;;;;;;;;5035598;28;20249;-89
2022/01/16 14:00:17;;;;;;;24.23;14.43;;;;;;;;;;5032521;28;20670;-89
2022/01/16 14:02:44;;;;;;;27.97;14.80;;;;;;;;;;5029866;28;20561;-90
2022/01/16 14:05:22;;;;;;;25.03;13.30;;;;;;;;;;5024889;28;20206;-89
2022/01/16 14:07:49;;;;;;;24.70;13.63;;;;;;;;;;5032146;28;20219;-89
2022/01/16 14:10:32;;;;;;;24.83;14.83;;;;;;;;;;5030552;28;20203;-90
2022/01/16 14:13:00;;;;;;;17.93;11.60;;;;;;;;;;5039462;28;20206;-89
2022/01/16 14:15:28;;;;;;;14.13;6.50;;;;;;;;;;5052963;28;20202;-88
2022/01/16 14:18:05;;;;;;;13.73;7.37;;;;;;;;;;5052493;28;20235;-89
2022/01/16 14:23:29;;;;;;;13.27;7.93;;;;;;;;;;4940550;29;20198;-90
2022/01/16 14:25:56;;;;;;;15.27;8.00;;;;;;;;;;5003569;28;20829;-91
2022/01/16 14:28:27;;;;;;;13.13;6.40;;;;;;;;;;5035523;28;20801;-89
2022/01/16 14:30:54;;;;;;;12.60;7.80;;;;;;;;;;5049491;28;20198;-89
2022/01/16 14:33:22;;;;;;;11.63;7.33;;;;;;;;;;5049183;28;20213;-89
2022/01/16 14:35:49;;;;;;;12.90;7.90;;;;;;;;;;5025343;28;20207;-90
2022/01/16 14:38:18;;;;;;;14.37;8.63;;;;;;;;;;5046544;28;20221;-89
2022/01/16 14:40:45;;;;;;;14.70;8.47;;;;;;;;;;5052163;28;20206;-89
2022/01/16 14:43:17;;;;;;;12.93;8.03;;;;;;;;;;5038677;28;20206;-89
2022/01/16 14:45:46;;;;;;;12.07;6.93;;;;;;;;;;5031907;28;20210;-89
2022/01/16 14:48:13;;;;;;;11.03;6.90;;;;;;;;;;5032058;28;20222;-89
2022/01/16 14:50:41;;;;;;;9.97;5.13;;;;;;;;;;5027952;28;20256;-89
2022/01/16 14:53:08;;;;;;;8.73;5.90;;;;;;;;;;5029075;28;20261;-89
2022/01/16 14:55:38;;;;;;;10.57;6.50;;;;;;;;;;5032086;28;20225;-89
2022/01/16 14:58:05;;;;;;;9.53;6.23;;;;;;;;;;5031387;28;20226;-89
2022/01/16 15:00:34;;;;;;;10.47;6.13;;;;;;;;;;5028074;28;20211;-90
2022/01/16 15:03:02;;;;;;;9.23;5.97;;;;;;;;;;5038032;28;20214;-89
2022/01/16 15:05:30;;;;;;;9.60;6.77;;;;;;;;;;5032113;28;20218;-89
2022/01/16 15:07:57;;;;;;;10.73;6.73;;;;;;;;;;5019737;28;20282;-89
2022/01/16 15:10:24;;;;;;;9.87;6.03;;;;;;;;;;5031689;28;20260;-89
2022/01/16 15:12:52;;;;;;;10.47;6.80;;;;;;;;;;5035215;28;20207;-89
2022/01/16 15:15:21;;;;;;;11.73;7.20;;;;;;;;;;5029416;28;20203;-89